Adventuress — WCX8691 — position and weather

sailwx.info

Track history (hours):
 
Tides and Currents Weather Stations Pressure Air Temp Water Temp Dewpoint Dewpoint Depression Visibility Wind Speed Wind Dir Waves Ship Positions

Adventuress (United States)

Ship's website: http://www.soundexp.org/

Owner: SOUND EXPERIENCE, PORT TOWNSEND, WA. More information available from US FCC via Universal Licensing System and Coast Guard Vessel Documentation Center.

Last reported at 2015-Sep-01 20:31 UTC. Time now 2015-Sep-04 18:46 UTC.
Position N 48°33' W 122°51'.

Type: Passenger vessel. MMSI: 367323180.

Date/timePositionNaut miles runAvg speedWind from/ knotsBaromVisibWave heightAir tempDewpointWater temp
2015-Sep-01 20:31N 48°33' W 122°51'5 0.7
2015-Sep-01 13:33N 48°34' W 122°59'0 0.0
2015-Sep-01 12:09N 48°34' W 122°59'0 0.0
2015-Sep-01 11:33N 48°34' W 122°59'0 0.0
2015-Sep-01 08:15N 48°34' W 122°59'0 0.0
2015-Sep-01 07:27N 48°34' W 122°59'0 0.0
2015-Sep-01 06:33N 48°34' W 122°59'0 0.0
2015-Sep-01 00:25N 48°34' W 122°59'1 0.4
2015-Aug-31 20:33N 48°32' W 122°58'5 3.6
2015-Aug-31 19:04N 48°34' W 122°50'  
2015-Aug-29 04:29N 48°31' W 122°36'0 0.0
2015-Aug-29 03:32N 48°31' W 122°36'0 0.0
2015-Aug-29 02:32N 48°31' W 122°36'0 0.0
2015-Aug-29 01:32N 48°31' W 122°36'0 0.0
2015-Aug-29 00:32N 48°31' W 122°36'0 0.0
2015-Aug-28 23:32N 48°31' W 122°36'0 0.0
2015-Aug-28 22:32N 48°31' W 122°36'0 0.0
2015-Aug-28 21:32N 48°31' W 122°36'0 0.0
2015-Aug-28 20:32N 48°31' W 122°36'0 0.0
2015-Aug-28 19:32N 48°31' W 122°36'0 0.0
2015-Aug-28 18:32N 48°31' W 122°36'0 0.0
2015-Aug-28 17:32N 48°31' W 122°36'0 0.0
2015-Aug-28 16:32N 48°31' W 122°36'0 0.0
2015-Aug-28 15:32N 48°31' W 122°36'0 0.0
2015-Aug-28 14:32N 48°31' W 122°36'0 0.0
2015-Aug-28 13:32N 48°31' W 122°36'0 0.0
2015-Aug-28 12:32N 48°31' W 122°36'0 0.0
2015-Aug-28 11:32N 48°31' W 122°36'0 0.0
2015-Aug-28 10:26N 48°31' W 122°36'0 0.0
2015-Aug-28 09:32N 48°31' W 122°36'0 0.0
2015-Aug-28 08:32N 48°31' W 122°36'0 0.0
2015-Aug-28 07:32N 48°31' W 122°36'0 0.0
2015-Aug-28 06:32N 48°31' W 122°36'0 0.0
2015-Aug-28 05:32N 48°31' W 122°36'0 0.0
2015-Aug-28 04:32N 48°31' W 122°36'0 0.0
2015-Aug-28 03:32N 48°31' W 122°36'0 0.0
2015-Aug-28 02:32N 48°31' W 122°36'0 0.0
2015-Aug-28 01:26N 48°31' W 122°36'0 0.0
2015-Aug-28 00:32N 48°31' W 122°36'0 0.0
2015-Aug-27 23:32N 48°31' W 122°36'0 0.0
2015-Aug-27 22:32N 48°31' W 122°36'0 0.0
2015-Aug-27 21:32N 48°31' W 122°36'0 0.0
2015-Aug-27 20:32N 48°31' W 122°36'1 1.3
2015-Aug-27 19:33N 48°31' W 122°34'2 0.0
2015-Aug-25 20:10N 48°33' W 122°34'2 3.3
2015-Aug-25 19:34N 48°31' W 122°35'1 0.6
2015-Aug-25 18:26N 48°31' W 122°36'0 0.0
2015-Aug-25 17:32N 48°31' W 122°36'0 0.0
2015-Aug-25 16:32N 48°31' W 122°36'0 0.0
2015-Aug-25 15:32N 48°31' W 122°36'0 0.0
2015-Aug-25 14:32N 48°31' W 122°36'0 0.0
2015-Aug-25 13:32N 48°31' W 122°36'0 0.0
2015-Aug-25 12:32N 48°31' W 122°36'0 0.0
2015-Aug-25 11:26N 48°31' W 122°36'0 0.0
2015-Aug-25 10:32N 48°31' W 122°36'0 0.0
2015-Aug-25 09:32N 48°31' W 122°36'0 0.0
2015-Aug-25 08:32N 48°31' W 122°36'0 0.0
2015-Aug-25 07:32N 48°31' W 122°36'0 0.0
2015-Aug-25 06:32N 48°31' W 122°36'0 0.0
2015-Aug-25 05:32N 48°31' W 122°36'0 0.0
2015-Aug-25 04:32N 48°31' W 122°36'0 0.0
2015-Aug-25 03:32N 48°31' W 122°36'0 0.0
2015-Aug-25 02:32N 48°31' W 122°36'0 0.0
2015-Aug-25 01:32N 48°31' W 122°36'0 0.0
2015-Aug-25 00:26N 48°31' W 122°36'0 0.0
2015-Aug-24 23:32N 48°31' W 122°36'0 0.0
2015-Aug-24 22:26N 48°31' W 122°36'0 0.0
2015-Aug-24 21:32N 48°31' W 122°36'0 0.0
2015-Aug-24 20:32N 48°31' W 122°36'0 0.0
2015-Aug-24 19:32N 48°31' W 122°36'0 0.0
2015-Aug-24 18:26N 48°31' W 122°36'0 0.0
2015-Aug-24 17:32N 48°31' W 122°36'0 0.0
2015-Aug-24 16:32N 48°31' W 122°36'0 0.0
2015-Aug-24 15:32N 48°31' W 122°36'0 0.0
2015-Aug-24 14:32N 48°31' W 122°36'0 0.0
2015-Aug-24 13:32N 48°31' W 122°36'0 0.0
2015-Aug-24 12:32N 48°31' W 122°36'0 0.0
2015-Aug-24 11:32N 48°31' W 122°36'0 0.0
2015-Aug-24 10:26N 48°31' W 122°36'0 0.0
2015-Aug-24 09:32N 48°31' W 122°36'0 0.0
2015-Aug-24 08:32N 48°31' W 122°36'0 0.0
2015-Aug-24 07:32N 48°31' W 122°36'0 0.0
2015-Aug-24 06:32N 48°31' W 122°36'0 0.0
2015-Aug-24 05:32N 48°31' W 122°36'0 0.0
2015-Aug-24 04:20N 48°31' W 122°36'0 0.0
2015-Aug-24 03:33N 48°31' W 122°36'0 0.0
2015-Aug-24 02:33N 48°31' W 122°36'0 0.0
2015-Aug-24 01:33N 48°31' W 122°36'0 0.0
2015-Aug-24 00:33N 48°31' W 122°36'0 0.0
2015-Aug-23 23:33N 48°31' W 122°36'0 0.0
2015-Aug-23 22:33N 48°31' W 122°36'0 0.0
2015-Aug-23 21:33N 48°31' W 122°36'1 0.9
2015-Aug-23 20:33N 48°31' W 122°35'11 0.5
2015-Aug-22 23:33N 48°36' W 122°50'2 2.2
2015-Aug-22 22:33N 48°35' W 122°53'  
Track history (hours):
 
Tides and Currents Weather Stations Pressure Air Temp Water Temp Dewpoint Dewpoint Depression Visibility Wind Speed Wind Dir Waves Ship Positions

Adventuress (United States)

Ship's website: http://www.soundexp.org/

Owner: SOUND EXPERIENCE, PORT TOWNSEND, WA. More information available from US FCC via Universal Licensing System and Coast Guard Vessel Documentation Center.

Last reported at 2015-Sep-01 20:31 UTC. Time now 2015-Sep-04 18:46 UTC.
Position N 48°33' W 122°51'.

Type: Passenger vessel. MMSI: 367323180.

Date/timePositionNaut miles runAvg speedWind from/ knotsBaromVisibWave heightAir tempDewpointWater temp
2015-Sep-01 20:31N 48°33' W 122°51'5 0.7
2015-Sep-01 13:33N 48°34' W 122°59'0 0.0
2015-Sep-01 12:09N 48°34' W 122°59'0 0.0
2015-Sep-01 11:33N 48°34' W 122°59'0 0.0
2015-Sep-01 08:15N 48°34' W 122°59'0 0.0
2015-Sep-01 07:27N 48°34' W 122°59'0 0.0
2015-Sep-01 06:33N 48°34' W 122°59'0 0.0
2015-Sep-01 00:25N 48°34' W 122°59'1 0.4
2015-Aug-31 20:33N 48°32' W 122°58'5 3.6
2015-Aug-31 19:04N 48°34' W 122°50'  
2015-Aug-29 04:29N 48°31' W 122°36'0 0.0
2015-Aug-29 03:32N 48°31' W 122°36'0 0.0
2015-Aug-29 02:32N 48°31' W 122°36'0 0.0
2015-Aug-29 01:32N 48°31' W 122°36'0 0.0
2015-Aug-29 00:32N 48°31' W 122°36'0 0.0
2015-Aug-28 23:32N 48°31' W 122°36'0 0.0
2015-Aug-28 22:32N 48°31' W 122°36'0 0.0
2015-Aug-28 21:32N 48°31' W 122°36'0 0.0
2015-Aug-28 20:32N 48°31' W 122°36'0 0.0
2015-Aug-28 19:32N 48°31' W 122°36'0 0.0
2015-Aug-28 18:32N 48°31' W 122°36'0 0.0
2015-Aug-28 17:32N 48°31' W 122°36'0 0.0
2015-Aug-28 16:32N 48°31' W 122°36'0 0.0
2015-Aug-28 15:32N 48°31' W 122°36'0 0.0
2015-Aug-28 14:32N 48°31' W 122°36'0 0.0
2015-Aug-28 13:32N 48°31' W 122°36'0 0.0
2015-Aug-28 12:32N 48°31' W 122°36'0 0.0
2015-Aug-28 11:32N 48°31' W 122°36'0 0.0
2015-Aug-28 10:26N 48°31' W 122°36'0 0.0
2015-Aug-28 09:32N 48°31' W 122°36'0 0.0
2015-Aug-28 08:32N 48°31' W 122°36'0 0.0
2015-Aug-28 07:32N 48°31' W 122°36'0 0.0
2015-Aug-28 06:32N 48°31' W 122°36'0 0.0
2015-Aug-28 05:32N 48°31' W 122°36'0 0.0
2015-Aug-28 04:32N 48°31' W 122°36'0 0.0
2015-Aug-28 03:32N 48°31' W 122°36'0 0.0
2015-Aug-28 02:32N 48°31' W 122°36'0 0.0
2015-Aug-28 01:26N 48°31' W 122°36'0 0.0
2015-Aug-28 00:32N 48°31' W 122°36'0 0.0
2015-Aug-27 23:32N 48°31' W 122°36'0 0.0
2015-Aug-27 22:32N 48°31' W 122°36'0 0.0
2015-Aug-27 21:32N 48°31' W 122°36'0 0.0
2015-Aug-27 20:32N 48°31' W 122°36'1 1.3
2015-Aug-27 19:33N 48°31' W 122°34'2 0.0
2015-Aug-25 20:10N 48°33' W 122°34'2 3.3
2015-Aug-25 19:34N 48°31' W 122°35'1 0.6
2015-Aug-25 18:26N 48°31' W 122°36'0 0.0
2015-Aug-25 17:32N 48°31' W 122°36'0 0.0
2015-Aug-25 16:32N 48°31' W 122°36'0 0.0
2015-Aug-25 15:32N 48°31' W 122°36'0 0.0
2015-Aug-25 14:32N 48°31' W 122°36'0 0.0
2015-Aug-25 13:32N 48°31' W 122°36'0 0.0
2015-Aug-25 12:32N 48°31' W 122°36'0 0.0
2015-Aug-25 11:26N 48°31' W 122°36'0 0.0
2015-Aug-25 10:32N 48°31' W 122°36'0 0.0
2015-Aug-25 09:32N 48°31' W 122°36'0 0.0
2015-Aug-25 08:32N 48°31' W 122°36'0 0.0
2015-Aug-25 07:32N 48°31' W 122°36'0 0.0
2015-Aug-25 06:32N 48°31' W 122°36'0 0.0
2015-Aug-25 05:32N 48°31' W 122°36'0 0.0
2015-Aug-25 04:32N 48°31' W 122°36'0 0.0
2015-Aug-25 03:32N 48°31' W 122°36'0 0.0
2015-Aug-25 02:32N 48°31' W 122°36'0 0.0
2015-Aug-25 01:32N 48°31' W 122°36'0 0.0
2015-Aug-25 00:26N 48°31' W 122°36'0 0.0
2015-Aug-24 23:32N 48°31' W 122°36'0 0.0
2015-Aug-24 22:26N 48°31' W 122°36'0 0.0
2015-Aug-24 21:32N 48°31' W 122°36'0 0.0
2015-Aug-24 20:32N 48°31' W 122°36'0 0.0
2015-Aug-24 19:32N 48°31' W 122°36'0 0.0
2015-Aug-24 18:26N 48°31' W 122°36'0 0.0
2015-Aug-24 17:32N 48°31' W 122°36'0 0.0
2015-Aug-24 16:32N 48°31' W 122°36'0 0.0
2015-Aug-24 15:32N 48°31' W 122°36'0 0.0
2015-Aug-24 14:32N 48°31' W 122°36'0 0.0
2015-Aug-24 13:32N 48°31' W 122°36'0 0.0
2015-Aug-24 12:32N 48°31' W 122°36'0 0.0
2015-Aug-24 11:32N 48°31' W 122°36'0 0.0
2015-Aug-24 10:26N 48°31' W 122°36'0 0.0
2015-Aug-24 09:32N 48°31' W 122°36'0 0.0
2015-Aug-24 08:32N 48°31' W 122°36'0 0.0
2015-Aug-24 07:32N 48°31' W 122°36'0 0.0
2015-Aug-24 06:32N 48°31' W 122°36'0 0.0
2015-Aug-24 05:32N 48°31' W 122°36'0 0.0
2015-Aug-24 04:20N 48°31' W 122°36'0 0.0
2015-Aug-24 03:33N 48°31' W 122°36'0 0.0
2015-Aug-24 02:33N 48°31' W 122°36'0 0.0
2015-Aug-24 01:33N 48°31' W 122°36'0 0.0
2015-Aug-24 00:33N 48°31' W 122°36'0 0.0
2015-Aug-23 23:33N 48°31' W 122°36'0 0.0
2015-Aug-23 22:33N 48°31' W 122°36'0 0.0
2015-Aug-23 21:33N 48°31' W 122°36'1 0.9
2015-Aug-23 20:33N 48°31' W 122°35'11 0.5
2015-Aug-22 23:33N 48°36' W 122°50'2 2.2
2015-Aug-22 22:33N 48°35' W 122°53'  

Dump ship's entire track history